Time;durP1;ratioP1;P1;durP2;ratioP2;P2;SDS_P1;SDS_P2;PMS_P1;PMS_P2;Temp;Humidity;BMP_temperature;BMP_pressure;BME280_temperature;BME280_humidity;BME280_pressure;Samples;Min_cycle;Max_cycle;Signal;HPM_P1;HPM_P2
2022/11/15 00:01:21;;;;;;;0.88;0.82;;;;;;;0.44;48.22;99740.53;4919435;29;20050;-66
2022/11/15 00:04:06;;;;;;;4.93;0.90;;;;;;;0.47;48.61;99726.31;4921678;29;20099;-66
2022/11/15 00:06:50;;;;;;;1.05;0.90;;;;;;;0.49;48.61;99734.00;4919489;29;20150;-66
2022/11/15 00:09:34;;;;;;;3.25;1.13;;;;;;;0.61;48.68;99727.47;4936574;29;20131;-65
2022/11/15 00:12:18;;;;;;;3.13;1.13;;;;;;;0.55;49.01;99717.69;4919449;29;20462;-66
2022/11/15 00:15:02;;;;;;;2.22;1.50;;;;;;;0.53;49.73;99717.88;4921873;29;20050;-65
2022/11/15 00:17:50;;;;;;;2.67;1.60;;;;;;;0.59;49.83;99716.38;4921920;29;20051;-65
2022/11/15 00:20:35;;;;;;;4.28;2.00;;;;;;;0.50;49.50;99720.81;4921347;29;20051;-66
2022/11/15 00:23:19;;;;;;;3.28;1.50;;;;;;;0.43;49.21;99712.81;4936065;29;20039;-65
2022/11/15 00:26:03;;;;;;;4.47;1.60;;;;;;;0.42;50.30;99710.38;4936332;29;20050;-66
2022/11/15 00:28:48;;;;;;;1.73;1.10;;;;;;;0.36;50.13;99708.41;4936008;29;20058;-65
2022/11/15 00:31:32;;;;;;;4.43;1.42;;;;;;;0.13;50.03;99664.72;4936300;29;20047;-66
2022/11/15 00:34:16;;;;;;;3.58;1.90;;;;;;;0.45;50.34;99703.03;4935834;29;20051;-65
2022/11/15 00:37:00;;;;;;;2.55;1.55;;;;;;;0.39;51.08;99700.25;4936267;29;20055;-65
2022/11/15 00:39:45;;;;;;;2.60;2.03;;;;;;;0.39;51.06;99695.06;4892184;29;20531;-67
2022/11/15 00:42:29;;;;;;;3.35;1.92;;;;;;;0.31;51.68;99689.84;4921537;29;20058;-65
2022/11/15 00:45:13;;;;;;;2.95;1.95;;;;;;;0.41;50.93;99691.31;4936238;29;20044;-65
2022/11/15 00:47:57;;;;;;;4.97;1.80;;;;;;;0.36;50.96;99684.94;4921758;29;20048;-65
2022/11/15 00:50:41;;;;;;;5.45;1.70;;;;;;;0.39;51.71;99690.66;4905463;29;20040;-65
2022/11/15 00:53:25;;;;;;;5.50;2.80;;;;;;;0.44;51.58;99679.69;4921701;29;20086;-65
2022/11/15 00:56:10;;;;;;;7.72;3.70;;;;;;;0.53;50.87;99676.13;4921675;29;20147;-65
2022/11/15 00:58:54;;;;;;;7.75;2.50;;;;;;;0.55;51.11;99684.59;4935668;29;20055;-65
2022/11/15 01:01:38;;;;;;;2.85;1.63;;;;;;;0.51;51.35;99678.09;4937867;29;20062;-66
2022/11/15 01:04:22;;;;;;;3.05;1.73;;;;;;;0.53;51.06;99677.91;4954857;29;20047;-66
2022/11/15 01:07:07;;;;;;;8.52;1.80;;;;;;;0.50;50.87;99678.22;4937501;29;20075;-66
2022/11/15 01:09:51;;;;;;;6.07;2.75;;;;;;;0.46;50.72;99667.31;4940333;29;20330;-66
2022/11/15 01:12:36;;;;;;;2.85;1.92;;;;;;;0.42;50.85;99659.03;4940197;29;20055;-66
2022/11/15 01:15:20;;;;;;;2.55;1.48;;;;;;;0.39;50.41;99650.72;4954607;29;20047;-65
2022/11/15 01:18:04;;;;;;;6.15;2.17;;;;;;;0.25;50.22;99648.78;4940236;29;20394;-65
2022/11/15 01:20:48;;;;;;;4.25;1.63;;;;;;;0.15;50.70;99641.94;4954436;29;20066;-65
2022/11/15 01:23:33;;;;;;;5.65;2.55;;;;;;;0.18;50.88;99652.03;4953647;29;20062;-65
2022/11/15 01:26:17;;;;;;;18.10;7.20;;;;;;;0.24;51.04;99647.97;4937313;29;20039;-66
2022/11/15 01:29:01;;;;;;;70.10;25.60;;;;;;;0.31;50.42;99653.31;4918249;29;20056;-65
2022/11/15 01:31:45;;;;;;;27.58;8.15;;;;;;;0.29;50.19;99650.06;4915078;29;20060;-66
2022/11/15 01:34:29;;;;;;;28.02;9.35;;;;;;;0.26;50.57;99653.81;4916360;29;20047;-66
2022/11/15 01:37:13;;;;;;;13.02;5.38;;;;;;;0.21;50.49;99646.50;4915045;29;20056;-65
2022/11/15 01:39:57;;;;;;;6.90;2.28;;;;;;;0.22;50.17;99644.69;4915245;29;20052;-66
2022/11/15 01:42:41;;;;;;;5.35;1.60;;;;;;;0.18;51.34;99649.44;4916312;29;20054;-65
2022/11/15 01:45:26;;;;;;;1.63;1.20;;;;;;;0.09;51.23;99642.59;4898274;29;20319;-65
2022/11/15 01:48:10;;;;;;;2.30;1.58;;;;;;;0.15;51.84;99646.34;4895691;29;20315;-65
2022/11/15 01:50:55;;;;;;;3.08;1.92;;;;;;;0.09;52.27;99647.81;4881346;29;20089;-65
2022/11/15 01:53:41;;;;;;;2.80;1.40;;;;;;;0.13;52.08;99640.47;4895224;29;20045;-66
2022/11/15 01:56:29;;;;;;;2.25;1.20;;;;;;;0.12;52.46;99646.63;4882526;29;20155;-66
2022/11/15 01:59:14;;;;;;;6.28;1.60;;;;;;;0.16;52.10;99650.56;4894202;29;20123;-65
2022/11/15 02:01:58;;;;;;;4.32;1.50;;;;;;;0.20;51.88;99651.84;4895106;29;20045;-65
2022/11/15 02:04:45;;;;;;;3.67;1.33;;;;;;;0.06;52.30;99642.06;4893365;29;20049;-66
2022/11/15 02:07:31;;;;;;;2.63;1.30;;;;;;;0.14;52.49;99639.47;4895774;29;20052;-65
2022/11/15 02:10:20;;;;;;;6.70;1.58;;;;;;;0.11;53.07;99642.41;4895421;29;20139;-65
2022/11/15 02:13:05;;;;;;;4.63;1.43;;;;;;;0.01;53.21;99639.16;4895704;29;20520;-65
2022/11/15 02:15:58;;;;;;;1.73;1.50;;;;;;;0.08;53.69;99635.72;4896824;29;20075;-65
2022/11/15 02:18:57;;;;;;;5.30;1.27;;;;;;;0.10;53.50;99635.59;4896888;29;20124;-65
2022/11/15 02:21:48;;;;;;;3.60;1.20;;;;;;;0.04;53.45;99629.22;4895243;29;20050;-65
2022/11/15 02:24:49;;;;;;;2.65;1.55;;;;;;;0.16;53.28;99630.53;4895211;29;20099;-66
2022/11/15 02:27:54;;;;;;;2.20;1.40;;;;;;;0.18;53.07;99633.78;4904224;29;20497;-65
2022/11/15 02:30:45;;;;;;;3.13;1.90;;;;;;;0.15;53.55;99641.13;4919816;29;20134;-65
2022/11/15 02:33:47;;;;;;;;;;;;;;;0.25;53.40;99633.13;4934541;29;20059;-65
2022/11/15 02:36:45;;;;;;;6.65;1.70;;;;;;;0.31;53.02;99628.06;4919826;29;19945;-65
2022/11/15 02:39:36;;;;;;;7.90;2.92;;;;;;;0.27;53.45;99628.56;4919740;29;20480;-65
2022/11/15 02:45:35;;;;;;;11.57;2.00;;;;;;;0.40;52.59;99621.03;4922317;29;20477;-66
2022/11/15 02:48:20;;;;;;;3.50;1.50;;;;;;;0.43;52.40;99616.31;4903760;29;20044;-66
2022/11/15 02:51:05;;;;;;;6.13;1.98;;;;;;;0.42;52.74;99621.69;4919523;29;20043;-65
2022/11/15 02:53:49;;;;;;;4.82;2.15;;;;;;;0.32;52.82;99616.63;4934033;29;20130;-65
2022/11/15 02:56:34;;;;;;;10.70;2.28;;;;;;;0.35;52.34;99618.09;4903513;29;20497;-66
2022/11/15 02:59:55;;;;;;;7.60;2.97;;;;;;;0.30;53.62;99610.78;4919712;29;20047;-66
2022/11/15 03:03:01;;;;;;;3.88;1.70;;;;;;;0.35;53.06;99607.69;4934294;29;20480;-66
2022/11/15 03:06:07;;;;;;;3.63;1.73;;;;;;;0.30;53.18;99591.72;4934183;29;20054;-65
2022/11/15 03:09:16;;;;;;;4.78;1.65;;;;;;;0.44;52.85;99586.66;4919628;29;20052;-65
2022/11/15 03:12:06;;;;;;;7.32;2.00;;;;;;;0.47;52.77;99593.31;4934009;29;20051;-66
2022/11/15 03:14:59;;;;;;;5.15;1.75;;;;;;;0.47;51.95;99587.28;4933969;29;20052;-65
2022/11/15 03:18:06;;;;;;;9.30;3.60;;;;;;;0.40;51.82;99590.56;4916864;29;20082;-64
2022/11/15 03:20:51;;;;;;;14.63;4.75;;;;;;;0.36;52.98;99585.84;4903355;29;20051;-65
2022/11/15 03:23:37;;;;;;;8.07;2.42;;;;;;;0.38;52.32;99592.53;4900890;29;20143;-65
2022/11/15 03:26:23;;;;;;;4.25;1.70;;;;;;;0.24;52.46;99577.56;4913704;29;20048;-65
2022/11/15 03:29:22;;;;;;;4.40;2.13;;;;;;;0.33;52.47;99584.38;4913940;29;20056;-65
2022/11/15 03:32:12;;;;;;;10.45;4.80;;;;;;;0.31;52.52;99577.72;4900367;29;20044;-66
2022/11/15 03:35:00;;;;;;;6.55;2.70;;;;;;;0.20;52.67;99587.50;4915033;29;20410;-65
2022/11/15 03:37:59;;;;;;;8.00;2.70;;;;;;;0.28;52.67;99589.28;4897857;29;20048;-66
2022/11/15 03:40:49;;;;;;;6.07;2.13;;;;;;;0.31;52.02;99588.13;4897661;29;20052;-66
2022/11/15 03:43:36;;;;;;;4.75;1.75;;;;;;;0.21;52.06;99590.94;4884686;29;20048;-66
2022/11/15 03:46:27;;;;;;;5.95;2.03;;;;;;;0.19;51.85;99585.88;4914676;29;20052;-67
2022/11/15 03:49:31;;;;;;;11.15;2.20;;;;;;;0.20;51.87;99576.25;4897546;29;20044;-66
2022/11/15 03:52:18;;;;;;;4.72;1.83;;;;;;;0.26;51.09;99585.22;4884380;29;20147;-65
2022/11/15 03:55:04;;;;;;;3.78;1.80;;;;;;;0.27;51.18;99577.22;4901563;29;20399;-66
2022/11/15 03:57:51;;;;;;;6.47;1.52;;;;;;;0.28;51.23;99573.63;4903922;29;20410;-65
2022/11/15 04:00:35;;;;;;;8.30;1.80;;;;;;;0.20;50.85;99569.25;4918038;29;20048;-66
2022/11/15 04:03:19;;;;;;;5.40;1.80;;;;;;;0.26;51.16;99564.34;4917102;29;20526;-65
2022/11/15 04:06:03;;;;;;;8.50;1.70;;;;;;;0.31;50.94;99565.47;4917739;29;20529;-66
2022/11/15 04:08:47;;;;;;;6.85;1.77;;;;;;;0.45;50.50;99566.59;4900763;29;20403;-66
2022/11/15 04:11:31;;;;;;;2.75;1.40;;;;;;;0.40;50.05;99553.22;4917903;29;20099;-66
2022/11/15 04:14:16;;;;;;;4.32;1.42;;;;;;;0.32;50.67;99558.47;4887216;29;20043;-66
2022/11/15 04:17:00;;;;;;;6.07;1.90;;;;;;;0.33;50.31;99557.50;4916464;29;20430;-65
2022/11/15 04:25:53;;;;;;;6.00;2.42;;;;;;;0.53;50.25;99560.53;4917624;29;20096;-66
2022/11/15 04:29:34;;;;;;;9.27;2.28;;;;;;;0.49;49.93;99559.25;4900302;29;20071;-65
2022/11/15 04:31:44;;;;;;;4.38;1.88;;;;;;;0.46;49.79;99555.16;4916670;29;20506;-66
2022/11/15 04:34:28;;;;;;;8.45;2.22;;;;;;;0.46;49.75;99552.56;4900155;29;20050;-67
2022/11/15 04:37:12;;;;;;;3.28;1.60;;;;;;;0.50;49.76;99551.25;4917443;29;20051;-65
2022/11/15 04:39:56;;;;;;;5.68;2.08;;;;;;;0.50;49.70;99546.06;4900147;29;20048;-65
2022/11/15 04:42:42;;;;;;;3.55;1.95;;;;;;;0.52;49.94;99545.88;4900173;29;20063;-65
2022/11/15 04:45:27;;;;;;;8.35;3.80;;;;;;;0.56;50.03;99541.94;4903026;29;20055;-65
2022/11/15 04:48:11;;;;;;;7.30;2.13;;;;;;;0.49;49.97;99544.41;4915979;29;20055;-65
2022/11/15 04:50:56;;;;;;;9.38;2.47;;;;;;;0.46;49.99;99544.75;4917049;29;20051;-66
2022/11/15 04:53:39;;;;;;;4.75;1.40;;;;;;;0.47;50.23;99538.53;4900198;29;20052;-66
2022/11/15 04:56:24;;;;;;;2.15;1.35;;;;;;;0.47;49.75;99535.13;4899790;29;20072;-69
2022/11/15 04:59:08;;;;;;;4.97;1.70;;;;;;;0.51;50.12;99539.03;4899902;29;20044;-65
2022/11/15 05:01:52;;;;;;;8.15;2.08;;;;;;;0.55;50.27;99540.31;4916682;29;20414;-66
2022/11/15 05:04:37;;;;;;;7.45;1.75;;;;;;;0.56;50.62;99536.72;4915770;29;20403;-65
2022/11/15 05:07:22;;;;;;;11.60;2.20;;;;;;;0.58;50.49;99535.56;4899061;29;20052;-65
2022/11/15 05:10:07;;;;;;;3.28;1.60;;;;;;;0.61;49.87;99534.41;4915663;29;20537;-65
2022/11/15 05:12:51;;;;;;;4.53;1.80;;;;;;;0.61;49.86;99540.44;4915665;29;20060;-68
2022/11/15 05:15:35;;;;;;;4.30;1.90;;;;;;;0.43;49.74;99534.66;4915609;29;20051;-70
2022/11/15 05:18:20;;;;;;;7.00;2.00;;;;;;;0.19;50.24;99532.91;4916812;29;20058;-71
2022/11/15 05:21:06;;;;;;;4.70;1.55;;;;;;;0.25;49.67;99526.22;4915381;29;20095;-69
2022/11/15 05:23:50;;;;;;;4.55;1.40;;;;;;;0.14;50.00;99515.16;4901979;29;20056;-71
2022/11/15 05:26:34;;;;;;;2.60;1.40;;;;;;;0.23;49.72;99516.75;4916133;29;20139;-73
2022/11/15 05:29:19;;;;;;;5.22;1.90;;;;;;;0.41;49.65;99524.41;4911709;29;20066;-72
2022/11/15 05:32:05;;;;;;;5.07;1.90;;;;;;;0.51;49.21;99518.97;4913358;29;20127;-73
2022/11/15 05:34:49;;;;;;;4.30;1.60;;;;;;;0.44;49.55;99526.66;4911153;29;20047;-70
2022/11/15 05:37:34;;;;;;;6.75;2.45;;;;;;;0.62;49.25;99521.22;4914249;29;20048;-71
2022/11/15 05:40:18;;;;;;;4.53;1.95;;;;;;;0.73;49.05;99514.78;4914360;29;20048;-70
2022/11/15 05:43:03;;;;;;;6.13;2.50;;;;;;;0.80;48.59;99520.16;4903498;29;20488;-71
2022/11/15 05:45:48;;;;;;;7.18;2.20;;;;;;;0.78;48.45;99515.09;4900208;29;20043;-70
2022/11/15 05:48:34;;;;;;;6.25;1.80;;;;;;;0.73;48.97;99511.38;4909525;29;20048;-71
2022/11/15 05:51:20;;;;;;;6.72;2.00;;;;;;;0.79;48.57;99513.28;4896210;29;20048;-73
2022/11/15 05:54:05;;;;;;;4.25;1.50;;;;;;;0.79;48.30;99515.91;4910048;29;20165;-71
2022/11/15 05:56:49;;;;;;;2.88;1.52;;;;;;;0.72;48.50;99507.16;4912875;29;20107;-72
2022/11/15 05:59:34;;;;;;;11.50;2.10;;;;;;;0.84;48.35;99503.97;4896021;29;20044;-72
2022/11/15 06:02:19;;;;;;;2.47;1.75;;;;;;;0.95;48.00;99494.94;4913500;29;20425;-70
2022/11/15 06:05:03;;;;;;;5.22;1.95;;;;;;;1.04;47.63;99500.94;4916280;29;20130;-72
2022/11/15 06:07:47;;;;;;;3.10;1.60;;;;;;;1.08;47.24;99489.97;4914942;29;20107;-72
2022/11/15 06:10:33;;;;;;;4.68;1.90;;;;;;;1.16;47.43;99496.13;4897563;29;20044;-72
2022/11/15 06:13:17;;;;;;;3.95;1.73;;;;;;;1.19;46.92;99495.78;4883704;29;20047;-73
2022/11/15 06:16:01;;;;;;;5.75;1.70;;;;;;;1.17;47.04;99503.78;4894139;29;20036;-72
2022/11/15 06:18:46;;;;;;;2.05;1.40;;;;;;;1.03;47.97;99486.25;4891659;29;20292;-73
2022/11/15 06:21:31;;;;;;;4.57;1.65;;;;;;;0.94;48.10;99500.31;4910883;29;20529;-73
2022/11/15 06:24:15;;;;;;;4.47;1.60;;;;;;;0.76;48.51;99495.38;4909115;29;20044;-73
2022/11/15 06:26:59;;;;;;;3.60;2.00;;;;;;;0.64;48.62;99494.94;4911597;29;20048;-73
2022/11/15 06:29:44;;;;;;;4.70;1.70;;;;;;;0.77;48.55;99486.59;4859809;29;20083;-73
2022/11/15 06:32:31;;;;;;;3.78;1.52;;;;;;;0.82;48.17;99473.81;4871746;29;20048;-73
2022/11/15 06:35:15;;;;;;;4.45;1.55;;;;;;;0.81;48.16;99486.03;4871595;29;20047;-73
2022/11/15 06:38:05;;;;;;;8.32;2.45;;;;;;;0.75;48.46;99473.69;4858581;29;20092;-74
2022/11/15 06:40:53;;;;;;;4.10;1.77;;;;;;;0.87;48.26;99476.72;4858414;29;20051;-73
2022/11/15 06:43:38;;;;;;;4.05;1.73;;;;;;;0.89;48.34;99465.13;4873900;29;20109;-75
2022/11/15 06:46:22;;;;;;;6.28;2.20;;;;;;;0.99;48.02;99464.91;4874534;29;20051;-72
2022/11/15 06:49:07;;;;;;;11.20;2.08;;;;;;;0.95;47.96;99466.25;4873835;29;20049;-72
2022/11/15 06:51:51;;;;;;;6.57;2.42;;;;;;;0.89;48.10;99459.09;4875672;29;20053;-73
2022/11/15 06:54:35;;;;;;;12.35;2.63;;;;;;;1.01;47.98;99462.13;4874774;29;20045;-72
2022/11/15 06:57:27;;;;;;;14.25;3.28;;;;;;;1.09;48.09;99462.88;4875902;29;20538;-73
2022/11/15 07:00:21;;;;;;;19.85;5.97;;;;;;;1.18;48.29;99452.34;4877558;29;20130;-72
2022/11/15 07:03:05;;;;;;;9.52;5.15;;;;;;;1.25;48.04;99435.81;4874384;29;20045;-72
2022/11/15 07:05:56;;;;;;;9.95;4.60;;;;;;;1.29;48.06;99441.50;4891396;29;20052;-74
2022/11/15 07:08:41;;;;;;;11.80;3.55;;;;;;;1.32;47.72;99446.38;4891815;29;20063;-72
2022/11/15 07:11:25;;;;;;;5.40;2.38;;;;;;;1.31;47.43;99436.94;4893615;29;20585;-75
2022/11/15 07:14:11;;;;;;;9.23;3.15;;;;;;;1.35;47.27;99439.03;4893341;29;20135;-74
2022/11/15 07:16:55;;;;;;;6.00;2.92;;;;;;;1.44;47.62;99431.94;4879815;29;20051;-71
2022/11/15 07:19:39;;;;;;;10.48;3.42;;;;;;;1.54;47.38;99422.03;4911775;29;20052;-72
2022/11/15 07:22:24;;;;;;;5.25;2.00;;;;;;;1.60;47.07;99420.50;4910857;29;20421;-74
2022/11/15 07:25:08;;;;;;;7.85;2.38;;;;;;;1.62;47.39;99426.38;4911602;29;20520;-70
2022/11/15 07:27:59;;;;;;;9.27;2.58;;;;;;;1.51;47.38;99413.75;4922488;28;20069;-73
2022/11/15 07:30:44;;;;;;;23.10;3.45;;;;;;;1.55;47.60;99421.03;4919914;29;20044;-73
2022/11/15 07:33:28;;;;;;;6.80;2.63;;;;;;;1.68;47.23;99412.59;4904438;29;20047;-73
2022/11/15 07:36:12;;;;;;;8.85;3.15;;;;;;;1.54;47.24;99401.13;4935901;29;20134;-71
2022/11/15 07:38:57;;;;;;;5.68;2.95;;;;;;;1.48;47.43;99394.00;4934240;29;20047;-70
2022/11/15 07:41:41;;;;;;;10.55;3.20;;;;;;;1.43;47.60;99393.72;4920765;29;20055;-73
2022/11/15 07:44:25;;;;;;;8.10;2.53;;;;;;;1.36;48.30;99404.06;4934451;29;20054;-72
2022/11/15 07:47:10;;;;;;;18.50;4.68;;;;;;;1.49;47.83;99402.66;4920919;29;20555;-72
2022/11/15 07:49:55;;;;;;;13.15;3.83;;;;;;;1.56;47.97;99408.81;4917925;29;20047;-71
2022/11/15 07:52:39;;;;;;;8.07;2.65;;;;;;;1.71;47.73;99406.19;4920524;29;20094;-70
2022/11/15 07:55:24;;;;;;;11.88;2.35;;;;;;;1.81;47.89;99407.53;4933268;29;20047;-71
2022/11/15 07:58:11;;;;;;;9.75;2.40;;;;;;;1.78;46.90;99413.13;4915059;29;20325;-72
2022/11/15 08:00:56;;;;;;;11.23;2.60;;;;;;;1.69;47.13;99406.38;4906798;29;20044;-72
2022/11/15 08:03:40;;;;;;;4.80;2.28;;;;;;;1.54;46.95;99395.09;4920472;29;20047;-71
2022/11/15 08:06:24;;;;;;;5.80;2.97;;;;;;;1.57;47.71;99394.72;4934947;29;20047;-72
2022/11/15 08:09:09;;;;;;;13.32;2.80;;;;;;;1.58;47.36;99388.50;4903671;29;20071;-72
2022/11/15 08:11:53;;;;;;;10.07;2.95;;;;;;;1.63;47.45;99386.19;4918659;29;20043;-72
2022/11/15 08:14:38;;;;;;;10.70;2.70;;;;;;;1.56;47.31;99382.66;4934455;29;20058;-73
2022/11/15 08:17:23;;;;;;;7.55;2.42;;;;;;;1.49;47.65;99387.78;4919049;29;20131;-72
2022/11/15 08:20:08;;;;;;;7.55;2.72;;;;;;;1.54;47.71;99385.44;4935181;29;20142;-71
2022/11/15 08:22:54;;;;;;;6.35;2.50;;;;;;;1.64;47.87;99384.38;4933745;29;20561;-72
2022/11/15 08:25:38;;;;;;;10.07;3.20;;;;;;;1.61;47.89;99374.28;4934832;29;20103;-70
2022/11/15 08:28:22;;;;;;;6.47;2.90;;;;;;;1.72;48.52;99376.44;4934163;29;20505;-71
2022/11/15 08:31:07;;;;;;;13.00;2.78;;;;;;;1.89;48.02;99374.47;4934543;29;20420;-69
2022/11/15 08:33:51;;;;;;;15.45;2.78;;;;;;;2.00;46.70;99374.00;4917222;29;20055;-67
2022/11/15 08:36:35;;;;;;;7.93;2.95;;;;;;;2.05;46.95;99374.25;4917984;29;20512;-72
2022/11/15 08:39:20;;;;;;;6.70;2.70;;;;;;;2.02;47.05;99375.44;4916853;29;20051;-69
2022/11/15 08:42:05;;;;;;;8.48;2.72;;;;;;;1.81;47.01;99367.53;4931591;29;20143;-71
2022/11/15 08:44:50;;;;;;;13.75;2.97;;;;;;;1.70;47.54;99373.19;4903287;29;20051;-69
2022/11/15 08:47:34;;;;;;;6.15;2.50;;;;;;;1.61;48.08;99362.03;4919576;29;20058;-69
2022/11/15 08:50:19;;;;;;;5.82;3.15;;;;;;;1.57;47.63;99338.06;4934248;29;20048;-68
2022/11/15 08:53:06;;;;;;;12.65;3.00;;;;;;;1.70;47.52;99360.94;4905451;29;20044;-71
2022/11/15 08:55:51;;;;;;;9.63;3.08;;;;;;;1.66;47.52;99354.47;4903191;29;20047;-70
2022/11/15 08:58:36;;;;;;;7.07;3.65;;;;;;;1.65;48.22;99352.84;4919431;29;20055;-70
2022/11/15 09:01:21;;;;;;;5.43;2.97;;;;;;;1.62;48.31;99352.38;4918964;29;20054;-70
2022/11/15 09:04:05;;;;;;;15.63;4.72;;;;;;;1.59;48.05;99346.53;4916740;29;20220;-70
2022/11/15 09:06:49;;;;;;;6.00;2.95;;;;;;;1.77;47.84;99340.13;4934058;29;20180;-71
2022/11/15 09:09:34;;;;;;;9.60;3.60;;;;;;;1.85;47.82;99334.78;4919514;29;20067;-71
2022/11/15 09:12:18;;;;;;;11.10;3.55;;;;;;;1.94;47.54;99335.50;4919191;29;20077;-69
2022/11/15 09:15:03;;;;;;;13.85;3.63;;;;;;;1.85;47.75;99339.22;4919395;29;20047;-70
2022/11/15 09:17:47;;;;;;;11.55;3.42;;;;;;;1.80;47.99;99331.94;4901173;29;20043;-72
2022/11/15 09:20:31;;;;;;;13.68;3.60;;;;;;;1.80;47.63;99335.34;4931112;29;20043;-70
2022/11/15 09:23:16;;;;;;;10.00;3.00;;;;;;;1.65;47.84;99329.34;4932452;29;20486;-69
2022/11/15 09:26:02;;;;;;;9.02;3.53;;;;;;;1.76;48.16;99328.84;4905516;29;20082;-71
2022/11/15 09:28:46;;;;;;;11.90;3.80;;;;;;;1.86;48.07;99312.91;4904857;29;20412;-71
2022/11/15 09:31:31;;;;;;;13.85;3.20;;;;;;;2.07;47.55;99321.78;4889379;29;20054;-70
2022/11/15 09:34:15;;;;;;;31.90;4.35;;;;;;;2.13;48.02;99329.72;4912512;29;20544;-70
2022/11/15 09:37:00;;;;;;;16.40;3.53;;;;;;;2.19;47.22;99321.13;4915173;29;20225;-72
2022/11/15 09:39:45;;;;;;;9.63;2.92;;;;;;;2.19;47.11;99321.13;4914925;29;20501;-71
2022/11/15 09:42:46;;;;;;;11.27;3.10;;;;;;;2.14;46.71;99328.69;4916049;29;20498;-69
2022/11/15 09:45:56;;;;;;;6.22;2.40;;;;;;;2.02;46.98;99338.81;4930977;29;20588;-72
2022/11/15 09:48:52;;;;;;;5.33;2.90;;;;;;;2.04;46.77;99329.00;4930358;29;20056;-70
2022/11/15 09:51:51;;;;;;;10.15;2.90;;;;;;;2.04;46.68;99320.34;4932054;29;20065;-72
2022/11/15 09:54:37;;;;;;;9.55;3.95;;;;;;;2.01;46.72;99323.34;4932170;29;20464;-71
2022/11/15 09:57:30;;;;;;;9.80;3.30;;;;;;;1.93;46.96;99324.25;4931972;29;20043;-71
2022/11/15 10:00:16;;;;;;;6.55;2.60;;;;;;;1.89;46.90;99312.53;4931217;29;20048;-72
2022/11/15 10:03:11;;;;;;;12.73;3.00;;;;;;;1.88;47.36;99308.28;4886079;29;20035;-71
2022/11/15 10:05:48;;;;;;;5.75;2.30;;;;;;;1.95;46.80;99305.78;4882881;29;20079;-71
2022/11/15 10:08:20;;;;;;;7.38;3.03;;;;;;;1.98;47.43;99300.97;4898917;29;20111;-71
2022/11/15 10:10:50;;;;;;;9.63;2.70;;;;;;;2.08;46.63;99305.09;4932747;29;20052;-72
2022/11/15 10:13:22;;;;;;;7.95;2.65;;;;;;;2.14;47.51;99299.13;4916488;29;20047;-72
2022/11/15 10:15:50;;;;;;;14.88;2.92;;;;;;;2.19;46.96;99279.28;4931871;29;20044;-71
2022/11/15 10:18:34;;;;;;;2.92;2.30;;;;;;;2.13;46.96;99280.03;4915389;29;20142;-70
2022/11/15 10:21:16;;;;;;;11.50;3.10;;;;;;;2.08;47.67;99276.34;4931671;29;20899;-69
2022/11/15 10:23:54;;;;;;;12.85;3.13;;;;;;;2.18;47.20;99275.06;4900130;29;20056;-73
2022/11/15 10:26:23;;;;;;;5.90;2.60;;;;;;;2.27;47.20;99268.72;4913181;29;20573;-72
2022/11/15 10:28:49;;;;;;;9.48;2.85;;;;;;;2.24;47.39;99257.81;4901217;29;20438;-71
2022/11/15 10:31:25;;;;;;;4.55;2.90;;;;;;;2.23;47.59;99274.47;4894668;29;20046;-71
2022/11/15 10:33:51;;;;;;;6.93;2.97;;;;;;;2.27;47.69;99268.72;4895233;29;20075;-71
2022/11/15 10:36:25;;;;;;;10.00;3.10;;;;;;;2.37;47.38;99262.34;4865011;29;20048;-71
2022/11/15 10:38:50;;;;;;;10.70;3.40;;;;;;;2.39;47.28;99262.97;4894311;29;20667;-69
2022/11/15 10:41:26;;;;;;;10.95;3.58;;;;;;;2.36;47.42;99252.91;4896182;29;20063;-70
2022/11/15 10:44:18;;;;;;;7.47;3.25;;;;;;;2.29;46.85;99247.59;4912309;29;20044;-70
2022/11/15 10:46:48;;;;;;;28.05;4.07;;;;;;;2.24;47.30;99255.19;4890433;29;20036;-71
2022/11/15 10:49:18;;;;;;;9.85;3.67;;;;;;;2.12;47.66;99241.81;4912731;29;20054;-70
2022/11/15 10:52:20;;;;;;;8.82;2.80;;;;;;;1.88;48.30;99237.72;4914903;29;20421;-69
2022/11/15 10:54:49;;;;;;;14.55;3.92;;;;;;;1.88;48.13;99237.72;4895732;29;20142;-71
2022/11/15 10:57:21;;;;;;;13.13;3.80;;;;;;;1.90;48.10;99240.97;4899067;29;20039;-72
2022/11/15 10:59:49;;;;;;;9.68;3.15;;;;;;;1.98;48.16;99234.81;4911590;29;20303;-72
2022/11/15 11:03:09;;;;;;;19.40;4.10;;;;;;;1.92;47.82;99207.63;4930574;29;20698;-72
2022/11/15 11:05:40;;;;;;;13.32;3.67;;;;;;;2.01;47.96;99218.75;4893997;29;20517;-71
2022/11/15 11:08:22;;;;;;;29.30;4.03;;;;;;;2.00;48.02;99223.19;4900112;29;20322;-71
2022/11/15 11:10:58;;;;;;;12.40;3.70;;;;;;;1.99;48.71;99215.50;4886894;29;20048;-70
2022/11/15 11:13:32;;;;;;;10.93;3.88;;;;;;;1.94;48.41;99218.69;4901773;29;20075;-70
2022/11/15 11:16:13;;;;;;;10.68;3.83;;;;;;;2.03;48.78;99220.19;4902483;29;20052;-69
2022/11/15 11:19:17;;;;;;;10.25;3.60;;;;;;;2.09;48.86;99213.41;4935823;29;20459;-71
2022/11/15 11:21:51;;;;;;;8.32;3.22;;;;;;;2.19;48.34;99208.66;4935950;29;20062;-71
2022/11/15 11:24:38;;;;;;;12.80;3.88;;;;;;;2.25;48.54;99205.31;4919575;29;20074;-71
2022/11/15 11:27:22;;;;;;;11.73;3.53;;;;;;;2.13;48.89;99196.34;4936619;29;20078;-72
2022/11/15 11:30:00;;;;;;;12.05;3.42;;;;;;;2.06;49.64;99198.09;4934551;29;20048;-70
2022/11/15 11:32:39;;;;;;;10.55;3.92;;;;;;;1.83;50.62;99198.28;4919117;29;20080;-71
2022/11/15 11:35:12;;;;;;;6.75;3.95;;;;;;;1.81;50.80;99197.63;4918932;29;20055;-71
2022/11/15 11:37:49;;;;;;;9.45;4.03;;;;;;;1.72;51.40;99183.06;4916338;29;20040;-69
2022/11/15 11:40:34;;;;;;;16.80;4.03;;;;;;;1.76;51.93;99194.75;4883696;29;20533;-72
2022/11/15 11:43:01;;;;;;;10.68;4.40;;;;;;;1.63;51.81;99185.00;4915803;29;20052;-70
2022/11/15 11:45:36;;;;;;;12.88;4.28;;;;;;;1.55;52.57;99187.69;4916595;29;20128;-71
2022/11/15 11:48:21;;;;;;;11.77;4.45;;;;;;;1.51;53.14;99189.88;4916055;29;20080;-71
2022/11/15 11:50:47;;;;;;;13.32;4.30;;;;;;;1.51;53.17;99184.66;4906982;29;20043;-71
2022/11/15 11:53:17;;;;;;;13.25;3.83;;;;;;;1.54;53.30;99186.91;4920932;29;20117;-70
2022/11/15 11:55:46;;;;;;;14.20;3.92;;;;;;;1.59;53.71;99188.97;4904409;29;20071;-72
2022/11/15 11:58:16;;;;;;;11.77;3.88;;;;;;;1.67;53.82;99190.66;4934804;29;20460;-71
2022/11/15 12:00:55;;;;;;;10.27;4.60;;;;;;;1.62;53.78;99180.78;4919818;29;20078;-71
2022/11/15 12:03:29;;;;;;;12.68;4.32;;;;;;;1.72;54.58;99177.84;4904280;29;20303;-70
2022/11/15 12:06:06;;;;;;;16.42;5.53;;;;;;;1.63;55.07;99156.25;4937311;29;20508;-70
2022/11/15 12:08:50;;;;;;;11.55;4.28;;;;;;;1.63;57.28;99173.72;4900169;29;20039;-71
2022/11/15 12:11:35;;;;;;;12.10;4.53;;;;;;;1.44;58.05;99173.34;4885643;29;20051;-71
2022/11/15 12:14:04;;;;;;;16.05;4.25;;;;;;;1.33;59.96;99168.56;4915631;29;20059;-71
2022/11/15 12:16:32;;;;;;;11.02;4.13;;;;;;;1.19;60.06;99172.81;4932253;29;20036;-70
2022/11/15 12:19:03;;;;;;;13.10;3.78;;;;;;;1.25;61.28;99166.88;4933139;29;20055;-71
2022/11/15 12:21:47;;;;;;;13.95;4.35;;;;;;;1.29;60.88;99160.28;4931900;29;20052;-73
2022/11/15 12:24:59;;;;;;;13.05;4.88;;;;;;;1.32;61.52;99159.94;4932891;29;20071;-71
2022/11/15 12:27:41;;;;;;;15.02;4.35;;;;;;;1.26;62.72;99158.03;4906215;29;20059;-70
2022/11/15 12:30:15;;;;;;;12.15;5.45;;;;;;;1.32;62.74;99153.88;4901478;29;20055;-72
2022/11/15 12:33:01;;;;;;;10.90;4.43;;;;;;;1.36;63.99;99157.75;4871454;29;20040;-72
2022/11/15 12:35:42;;;;;;;9.40;4.28;;;;;;;1.40;63.29;99153.78;4934234;29;20051;-72
2022/11/15 12:38:12;;;;;;;10.82;4.47;;;;;;;1.42;63.72;99143.97;4932017;29;20501;-71
2022/11/15 12:40:59;;;;;;;9.02;4.38;;;;;;;1.41;63.46;99137.09;4883188;29;20059;-71
2022/11/15 12:43:43;;;;;;;7.60;4.03;;;;;;;1.41;64.77;99144.94;4917173;29;20047;-71
2022/11/15 12:46:31;;;;;;;14.77;4.38;;;;;;;1.36;65.23;99135.06;4883473;29;20055;-69
2022/11/15 12:49:01;;;;;;;11.32;4.47;;;;;;;1.40;65.32;99132.09;4932338;29;20138;-70
2022/11/15 12:51:42;;;;;;;12.30;4.97;;;;;;;1.42;65.56;99130.09;4884059;29;20055;-71
2022/11/15 12:54:24;;;;;;;14.68;4.90;;;;;;;1.37;65.72;99133.25;4897752;29;20048;-72
2022/11/15 12:57:03;;;;;;;9.40;4.03;;;;;;;1.26;65.62;99110.22;4899674;29;20050;-72
2022/11/15 12:59:52;;;;;;;7.07;3.83;;;;;;;1.16;65.64;99112.34;4932535;29;20044;-66
2022/11/15 13:02:29;;;;;;;12.25;4.93;;;;;;;1.04;65.79;99107.56;4915126;29;20040;-70
2022/11/15 13:07:40;;;;;;;12.35;6.00;;;;;;;0.76;68.00;99096.16;4913075;29;20049;-71
2022/11/15 13:10:12;;;;;;;11.38;5.65;;;;;;;0.66;68.22;99097.25;4931327;29;20051;-70
2022/11/15 13:12:44;;;;;;;10.77;5.65;;;;;;;0.56;67.94;99093.28;4898766;29;20492;-71